createdAt,value
2017-12-03T00:00:47.838Z,39.10
2017-12-03T00:03:21.184Z,39.10
2017-12-03T00:05:54.557Z,39.60
2017-12-03T00:08:27.076Z,39.10
2017-12-03T00:10:59.671Z,39.00
2017-12-03T00:13:32.196Z,39.10
2017-12-03T00:16:04.736Z,39.10
2017-12-03T00:18:37.372Z,39.10
2017-12-03T00:21:09.884Z,39.00
2017-12-03T00:23:42.461Z,39.00
2017-12-03T00:26:15.078Z,39.10
2017-12-03T00:28:47.665Z,38.90
2017-12-03T00:31:20.164Z,39.00
2017-12-03T00:33:52.878Z,39.70
2017-12-03T00:36:26.173Z,39.10
2017-12-03T00:38:59.493Z,39.00
2017-12-03T00:41:31.991Z,39.00
2017-12-03T00:44:04.549Z,39.00
2017-12-03T00:46:37.130Z,39.00
2017-12-03T00:49:10.309Z,39.00
2017-12-03T00:51:42.768Z,38.90
2017-12-03T00:54:15.339Z,39.00
2017-12-03T00:56:47.889Z,39.00
2017-12-03T00:59:20.473Z,38.90
2017-12-03T01:01:53.801Z,38.90
2017-12-03T01:04:26.335Z,39.00
2017-12-03T01:06:58.853Z,38.90
2017-12-03T01:09:32.104Z,39.00
2017-12-03T01:12:05.423Z,39.00
2017-12-03T01:14:38.705Z,39.00
2017-12-03T01:17:12.013Z,39.60
2017-12-03T01:19:44.671Z,39.00
2017-12-03T01:22:17.874Z,39.00
2017-12-03T01:24:50.384Z,39.00
2017-12-03T01:27:22.941Z,39.00
2017-12-03T01:29:55.574Z,38.90
2017-12-03T01:32:28.002Z,38.90
2017-12-03T01:35:01.293Z,39.00
2017-12-03T01:37:33.728Z,38.90
2017-12-03T01:40:07.040Z,39.00
2017-12-03T01:42:39.518Z,38.90
2017-12-03T01:45:12.829Z,39.00
2017-12-03T01:47:45.392Z,38.90
2017-12-03T01:50:17.929Z,39.00
2017-12-03T01:52:50.564Z,39.00
2017-12-03T01:55:23.161Z,39.00
2017-12-03T01:57:55.660Z,38.90
2017-12-03T02:00:28.188Z,38.90
2017-12-03T02:03:01.547Z,39.00
2017-12-03T02:05:34.046Z,38.80
2017-12-03T02:08:06.630Z,39.00
2017-12-03T02:10:39.136Z,38.80
2017-12-03T02:13:11.679Z,38.90
2017-12-03T02:15:45.039Z,38.80
2017-12-03T02:18:18.346Z,39.00
2017-12-03T02:20:51.689Z,38.90
2017-12-03T02:23:24.196Z,38.80
2017-12-03T02:25:56.569Z,38.80
2017-12-03T02:28:29.072Z,38.90
2017-12-03T02:31:01.641Z,38.90
2017-12-03T02:33:34.196Z,38.90
2017-12-03T02:36:06.678Z,38.90
2017-12-03T02:38:39.197Z,38.80
2017-12-03T02:41:11.710Z,39.00
2017-12-03T02:43:44.416Z,38.90
2017-12-03T02:46:16.969Z,38.90
2017-12-03T02:48:50.346Z,39.30
2017-12-03T02:51:22.806Z,38.80
2017-12-03T02:53:55.656Z,38.90
2017-12-03T02:56:28.266Z,38.80
2017-12-03T02:59:00.750Z,39.00
2017-12-03T03:01:33.233Z,38.90
2017-12-03T03:04:06.514Z,39.00
2017-12-03T03:06:39.829Z,38.90
2017-12-03T03:09:12.369Z,38.80
2017-12-03T03:11:44.916Z,38.90
2017-12-03T03:14:17.620Z,38.90
2017-12-03T03:16:50.087Z,38.90
2017-12-03T03:19:22.609Z,38.80
2017-12-03T03:21:55.146Z,38.90
2017-12-03T03:24:27.704Z,38.90
2017-12-03T03:27:00.277Z,38.90
2017-12-03T03:29:32.793Z,38.90
2017-12-03T03:32:06.084Z,38.40
2017-12-03T03:34:38.630Z,38.80
2017-12-03T03:37:11.148Z,38.80
2017-12-03T03:39:43.725Z,38.80
2017-12-03T03:42:16.262Z,38.80
2017-12-03T03:44:48.898Z,38.80
2017-12-03T03:47:21.393Z,38.90
2017-12-03T03:49:53.936Z,38.90
2017-12-03T03:52:27.217Z,38.90
2017-12-03T03:54:59.694Z,38.90
2017-12-03T03:57:32.236Z,38.90
2017-12-03T04:00:04.824Z,38.80
2017-12-03T04:02:37.285Z,38.80
2017-12-03T04:05:09.885Z,38.80
2017-12-03T04:07:42.378Z,38.70
2017-12-03T04:10:14.940Z,38.80
2017-12-03T04:12:47.509Z,38.80
2017-12-03T04:15:20.764Z,39.10
2017-12-03T04:17:53.322Z,38.70
2017-12-03T04:20:25.864Z,38.80
2017-12-03T04:22:58.433Z,38.90
2017-12-03T04:25:31.057Z,38.80
2017-12-03T04:28:03.644Z,38.80
2017-12-03T04:30:36.201Z,38.90
2017-12-03T04:33:08.673Z,38.80
2017-12-03T04:35:41.980Z,38.80
2017-12-03T04:38:14.529Z,38.70
2017-12-03T04:40:47.021Z,38.70
2017-12-03T04:43:19.605Z,38.90
2017-12-03T04:45:52.072Z,38.90
2017-12-03T04:48:25.404Z,38.90
2017-12-03T04:50:57.894Z,38.80
2017-12-03T04:53:30.476Z,38.80
2017-12-03T04:56:03.002Z,38.80
2017-12-03T04:58:36.232Z,38.70
2017-12-03T05:01:08.798Z,38.70
2017-12-03T05:03:42.096Z,39.50
2017-12-03T05:06:15.281Z,38.90
2017-12-03T05:08:47.784Z,38.80
2017-12-03T05:11:20.352Z,38.70
2017-12-03T05:13:52.851Z,38.70
2017-12-03T05:16:25.350Z,38.80
2017-12-03T05:18:57.914Z,38.80
2017-12-03T05:21:31.235Z,38.80
2017-12-03T05:24:04.524Z,38.80
2017-12-03T05:26:37.013Z,38.70
2017-12-03T05:29:10.344Z,38.80
2017-12-03T05:31:43.601Z,38.80
2017-12-03T05:34:16.067Z,38.70
2017-12-03T05:36:48.589Z,38.80
2017-12-03T05:39:22.029Z,38.80
2017-12-03T05:41:54.487Z,38.80
2017-12-03T05:44:27.888Z,39.30
2017-12-03T05:47:00.436Z,38.70
2017-12-03T05:49:32.993Z,38.70
2017-12-03T05:52:05.593Z,38.80
2017-12-03T05:54:38.755Z,38.80
2017-12-03T05:57:11.201Z,38.70
2017-12-03T05:59:43.773Z,38.70
2017-12-03T06:02:16.253Z,38.80
2017-12-03T06:04:49.637Z,38.80
2017-12-03T06:07:22.906Z,38.70
2017-12-03T06:09:55.416Z,38.70
2017-12-03T06:12:27.996Z,38.70
2017-12-03T06:15:00.544Z,38.70
2017-12-03T06:17:33.813Z,38.80
2017-12-03T06:20:07.132Z,38.90
2017-12-03T06:22:39.628Z,38.80
2017-12-03T06:25:12.217Z,38.70
2017-12-03T06:27:44.758Z,38.70
2017-12-03T06:30:18.059Z,38.90
2017-12-03T06:32:50.606Z,38.60
2017-12-03T06:35:23.198Z,38.70
2017-12-03T06:37:55.757Z,38.70
2017-12-03T06:40:28.335Z,38.70
2017-12-03T06:43:00.820Z,39.40
2017-12-03T06:45:33.398Z,38.70
2017-12-03T06:48:06.772Z,39.40
2017-12-03T06:50:39.269Z,38.60
2017-12-03T06:53:11.658Z,38.60
2017-12-03T06:55:44.828Z,38.70
2017-12-03T06:58:17.303Z,38.60
2017-12-03T07:00:49.877Z,38.70
2017-12-03T07:03:22.475Z,38.70
2017-12-03T07:05:55.017Z,38.70
2017-12-03T07:08:27.412Z,38.60
2017-12-03T07:11:00.044Z,38.60
2017-12-03T07:13:32.609Z,38.60
2017-12-03T07:16:05.125Z,38.70
2017-12-03T07:18:37.737Z,38.70
2017-12-03T07:21:10.304Z,38.60
2017-12-03T07:23:42.866Z,38.50
2017-12-03T07:26:15.312Z,38.70
2017-12-03T07:28:47.822Z,38.60
2017-12-03T07:31:20.317Z,38.70
2017-12-03T07:33:52.871Z,38.60
2017-12-03T07:36:25.525Z,38.50
2017-12-03T07:38:58.025Z,38.50
2017-12-03T07:41:30.653Z,38.60
2017-12-03T07:44:03.243Z,38.60
2017-12-03T07:46:35.744Z,38.60
2017-12-03T07:49:08.321Z,38.50
2017-12-03T07:51:40.853Z,38.60
2017-12-03T07:54:14.254Z,38.60
2017-12-03T07:56:46.780Z,38.50
2017-12-03T07:59:19.302Z,38.60
2017-12-03T08:01:51.843Z,38.60
2017-12-03T08:04:24.370Z,38.60
2017-12-03T08:06:57.550Z,39.20
2017-12-03T08:09:30.086Z,38.50
2017-12-03T08:12:03.440Z,38.50
2017-12-03T08:14:36.001Z,38.50
2017-12-03T08:17:09.338Z,38.60
2017-12-03T08:19:41.999Z,38.50
2017-12-03T08:22:14.500Z,38.50
2017-12-03T08:24:47.074Z,38.60
2017-12-03T08:27:19.805Z,38.60
2017-12-03T08:29:53.084Z,38.60
2017-12-03T08:32:26.388Z,38.60
2017-12-03T08:34:59.675Z,38.50
2017-12-03T08:37:32.261Z,38.50
2017-12-03T08:40:05.568Z,38.80
2017-12-03T08:42:38.071Z,38.50
2017-12-03T08:45:11.416Z,38.50
2017-12-03T08:47:43.901Z,38.60
2017-12-03T08:50:16.459Z,38.60
2017-12-03T08:52:48.826Z,38.60
2017-12-03T08:55:21.506Z,38.50
2017-12-03T08:57:53.970Z,38.50
2017-12-03T09:00:26.465Z,38.50
2017-12-03T09:02:59.005Z,38.50
2017-12-03T09:05:31.524Z,38.50
2017-12-03T09:08:04.796Z,38.50
2017-12-03T09:10:37.285Z,38.50
2017-12-03T09:13:09.966Z,38.50
2017-12-03T09:15:43.249Z,38.50
2017-12-03T09:18:15.749Z,38.50
2017-12-03T09:20:49.085Z,38.50
2017-12-03T09:23:21.584Z,38.50
2017-12-03T09:25:54.169Z,38.50
2017-12-03T09:28:26.728Z,38.40
2017-12-03T09:31:00.004Z,38.60
2017-12-03T09:33:33.314Z,39.10
2017-12-03T09:36:05.805Z,38.40
2017-12-03T09:38:38.397Z,38.50
2017-12-03T09:41:10.929Z,38.50
2017-12-03T09:43:43.433Z,38.50
2017-12-03T09:46:15.989Z,38.50
2017-12-03T09:48:48.520Z,38.50
2017-12-03T09:51:21.729Z,38.50
2017-12-03T09:53:55.041Z,38.60
2017-12-03T09:56:28.309Z,38.50
2017-12-03T09:59:01.617Z,38.50
2017-12-03T10:01:34.160Z,38.50
2017-12-03T10:04:06.673Z,38.50
2017-12-03T10:06:39.164Z,38.50
2017-12-03T10:09:12.456Z,38.50
2017-12-03T10:11:45.050Z,38.40
2017-12-03T10:14:17.641Z,38.50
2017-12-03T10:16:50.157Z,38.40
2017-12-03T10:19:23.467Z,38.40
2017-12-03T10:21:56.732Z,39.00
2017-12-03T10:24:29.269Z,38.40
2017-12-03T10:27:01.884Z,38.40
2017-12-03T10:29:35.110Z,38.40
2017-12-03T10:32:07.677Z,38.40
2017-12-03T10:34:40.310Z,38.50
2017-12-03T10:37:12.812Z,38.70
2017-12-03T10:39:45.296Z,38.50
2017-12-03T10:42:17.897Z,38.50
2017-12-03T10:44:50.497Z,38.40
2017-12-03T10:47:23.018Z,38.40
2017-12-03T10:49:55.537Z,38.50
2017-12-03T10:52:28.097Z,38.40
2017-12-03T10:55:01.466Z,38.50
2017-12-03T10:57:33.949Z,38.50
2017-12-03T11:00:06.512Z,38.50
2017-12-03T11:02:39.001Z,38.40
2017-12-03T11:05:11.622Z,38.40
2017-12-03T11:07:44.186Z,38.50
2017-12-03T11:10:17.529Z,38.50
2017-12-03T11:12:50.819Z,38.40
2017-12-03T11:15:23.326Z,38.40
2017-12-03T11:17:55.917Z,38.40
2017-12-03T11:20:28.447Z,38.30
2017-12-03T11:23:01.069Z,38.40
2017-12-03T11:25:34.465Z,38.90
2017-12-03T11:28:06.869Z,38.40
2017-12-03T11:30:39.413Z,38.40
2017-12-03T11:33:12.640Z,38.40
2017-12-03T11:35:45.169Z,38.40
2017-12-03T11:38:18.509Z,38.40
2017-12-03T11:40:50.971Z,38.30
2017-12-03T11:43:23.472Z,38.40
2017-12-03T11:45:56.022Z,38.40
2017-12-03T11:48:28.528Z,38.40
2017-12-03T11:51:01.143Z,38.30
2017-12-03T11:53:33.682Z,38.80
2017-12-03T11:56:06.994Z,38.40
2017-12-03T11:58:39.449Z,38.30
2017-12-03T12:01:12.015Z,38.40
2017-12-03T12:03:45.201Z,38.30
2017-12-03T12:06:17.708Z,38.40
2017-12-03T12:08:50.265Z,38.30
2017-12-03T12:11:22.696Z,38.40
2017-12-03T12:13:55.212Z,38.30
2017-12-03T12:16:27.790Z,38.40
2017-12-03T12:19:00.229Z,38.30
2017-12-03T12:21:32.817Z,38.30
2017-12-03T12:24:06.089Z,38.40
2017-12-03T12:26:39.413Z,38.40
2017-12-03T12:29:13.398Z,38.40
2017-12-03T12:31:46.024Z,38.40
2017-12-03T12:34:18.540Z,38.40
2017-12-03T12:36:51.077Z,38.30
2017-12-03T12:39:23.630Z,38.40
2017-12-03T12:41:56.188Z,38.30
2017-12-03T12:44:29.480Z,38.60
2017-12-03T12:47:01.982Z,38.30
2017-12-03T12:49:34.542Z,38.40
2017-12-03T12:52:07.109Z,38.30
2017-12-03T12:54:39.632Z,38.30
2017-12-03T12:57:12.220Z,38.30
2017-12-03T12:59:44.650Z,38.30
2017-12-03T13:02:17.924Z,38.40
2017-12-03T13:04:51.185Z,38.40
2017-12-03T13:07:24.653Z,37.90
2017-12-03T13:09:57.158Z,38.40
2017-12-03T13:12:29.656Z,38.40
2017-12-03T13:15:01.938Z,38.30
2017-12-03T13:17:35.348Z,38.30
2017-12-03T13:20:08.589Z,38.30
2017-12-03T13:22:41.137Z,38.30
2017-12-03T13:25:13.608Z,38.30
2017-12-03T13:27:46.191Z,38.40
2017-12-03T13:30:18.694Z,38.30
2017-12-03T13:32:51.289Z,38.30
2017-12-03T13:35:23.789Z,39.00
2017-12-03T13:37:57.169Z,38.30
2017-12-03T13:40:30.533Z,38.40
2017-12-03T13:43:03.047Z,38.30
2017-12-03T13:45:35.606Z,38.30
2017-12-03T13:48:08.246Z,38.30
2017-12-03T13:50:40.900Z,38.40
2017-12-03T13:53:13.488Z,38.40
2017-12-03T13:55:45.910Z,38.40
2017-12-03T13:58:18.426Z,38.40
2017-12-03T14:00:50.866Z,38.40
2017-12-03T14:03:24.145Z,38.40
2017-12-03T14:05:56.622Z,38.40
2017-12-03T14:08:29.219Z,38.40
2017-12-03T14:11:01.785Z,38.40
2017-12-03T14:13:34.337Z,38.30
2017-12-03T14:16:06.892Z,38.40
2017-12-03T14:18:40.953Z,38.40
2017-12-03T14:21:14.214Z,38.80
2017-12-03T14:23:46.809Z,38.40
2017-12-03T14:26:19.388Z,38.40
2017-12-03T14:28:51.847Z,38.40
2017-12-03T14:31:24.441Z,38.40
2017-12-03T14:33:57.018Z,38.40
2017-12-03T14:36:29.573Z,38.40
2017-12-03T14:39:02.089Z,38.40
2017-12-03T14:41:34.573Z,38.40
2017-12-03T14:44:07.183Z,38.40
2017-12-03T14:46:39.724Z,38.30
2017-12-03T14:49:12.961Z,38.30
2017-12-03T14:51:45.445Z,38.30
2017-12-03T14:54:18.718Z,38.40
2017-12-03T14:56:51.994Z,38.40
2017-12-03T14:59:24.547Z,38.40
2017-12-03T15:01:57.763Z,38.40
2017-12-03T15:04:30.269Z,38.30
2017-12-03T15:07:02.797Z,38.40
2017-12-03T15:09:36.024Z,38.40
2017-12-03T15:12:09.352Z,38.40
2017-12-03T15:14:42.600Z,38.40
2017-12-03T15:17:15.088Z,38.40
2017-12-03T15:19:47.586Z,38.40
2017-12-03T15:22:20.040Z,38.40
2017-12-03T15:24:52.672Z,38.40
2017-12-03T15:27:25.189Z,38.40
2017-12-03T15:29:57.791Z,38.40
2017-12-03T15:32:30.241Z,38.40
2017-12-03T15:35:02.797Z,38.40
2017-12-03T15:37:35.275Z,38.40
2017-12-03T15:40:07.885Z,38.40
2017-12-03T15:42:41.258Z,38.40
2017-12-03T15:45:13.766Z,38.30
2017-12-03T15:47:46.341Z,38.40
2017-12-03T15:50:19.680Z,38.40
2017-12-03T15:52:52.158Z,38.40
2017-12-03T15:55:24.664Z,38.40
2017-12-03T15:57:57.320Z,38.40
2017-12-03T16:00:29.784Z,38.40
2017-12-03T16:03:02.398Z,38.40
2017-12-03T16:05:34.980Z,38.40
2017-12-03T16:08:08.285Z,38.40
2017-12-03T16:10:40.765Z,38.40
2017-12-03T16:13:13.233Z,38.40
2017-12-03T16:15:45.801Z,38.40
2017-12-03T16:18:18.329Z,38.40
2017-12-03T16:20:50.914Z,38.40
2017-12-03T16:23:23.416Z,38.40
2017-12-03T16:25:55.963Z,38.40
2017-12-03T16:28:29.345Z,38.40
2017-12-03T16:31:01.875Z,38.40
2017-12-03T16:33:35.243Z,38.40
2017-12-03T16:36:07.806Z,38.40
2017-12-03T16:38:40.341Z,38.40
2017-12-03T16:41:13.558Z,38.40
2017-12-03T16:43:45.993Z,38.40
2017-12-03T16:46:18.624Z,38.40
2017-12-03T16:48:51.133Z,38.40
2017-12-03T16:51:23.509Z,38.40
2017-12-03T16:53:56.024Z,38.40
2017-12-03T16:56:29.301Z,38.40
2017-12-03T16:59:02.492Z,38.40
2017-12-03T17:01:35.074Z,38.40
2017-12-03T17:04:07.558Z,38.40
2017-12-03T17:06:39.945Z,38.50
2017-12-03T17:09:12.512Z,38.40
2017-12-03T17:11:45.140Z,39.00
2017-12-03T17:14:17.653Z,38.40
2017-12-03T17:16:51.041Z,38.40
2017-12-03T17:19:23.601Z,38.40
2017-12-03T17:21:56.181Z,38.40
2017-12-03T17:24:29.453Z,38.60
2017-12-03T17:27:02.785Z,39.10
2017-12-03T17:29:35.290Z,38.40
2017-12-03T17:32:07.929Z,38.40
2017-12-03T17:34:40.385Z,38.50
2017-12-03T17:37:12.897Z,38.40
2017-12-03T17:39:45.295Z,38.40
2017-12-03T17:42:17.928Z,38.40
2017-12-03T17:44:51.221Z,38.50
2017-12-03T17:47:24.640Z,37.90
2017-12-03T17:49:57.136Z,38.40
2017-12-03T17:52:29.594Z,38.40
2017-12-03T17:55:02.928Z,38.40
2017-12-03T17:57:35.509Z,38.40
2017-12-03T18:00:08.087Z,38.40
2017-12-03T18:02:40.605Z,38.40
2017-12-03T18:05:13.966Z,38.40
2017-12-03T18:07:46.460Z,38.40
2017-12-03T18:10:19.028Z,38.30
2017-12-03T18:12:51.617Z,38.40
2017-12-03T18:15:24.176Z,38.40
2017-12-03T18:17:57.629Z,38.40
2017-12-03T18:20:30.165Z,38.40
2017-12-03T18:23:02.677Z,38.40
2017-12-03T18:25:35.168Z,38.40
2017-12-03T18:28:08.484Z,38.40
2017-12-03T18:30:41.781Z,38.40
2017-12-03T18:33:14.325Z,38.30
2017-12-03T18:35:47.525Z,38.50
2017-12-03T18:38:20.017Z,38.40
2017-12-03T18:40:52.596Z,38.30
2017-12-03T18:43:25.126Z,38.30
2017-12-03T18:45:57.668Z,38.40
2017-12-03T18:48:30.938Z,38.40
2017-12-03T18:51:03.407Z,38.40
2017-12-03T18:53:35.805Z,38.30
2017-12-03T18:56:08.339Z,38.40
2017-12-03T18:58:40.846Z,38.30
2017-12-03T19:01:13.475Z,38.40
2017-12-03T19:03:45.998Z,38.30
2017-12-03T19:06:18.546Z,38.40
2017-12-03T19:08:51.840Z,38.90
2017-12-03T19:11:24.482Z,38.30
2017-12-03T19:13:57.057Z,38.40
2017-12-03T19:16:29.565Z,38.30
2017-12-03T19:19:02.764Z,39.00
2017-12-03T19:21:36.020Z,39.00
2017-12-03T19:24:08.586Z,38.30
2017-12-03T19:26:41.113Z,38.40
2017-12-03T19:29:13.677Z,38.40
2017-12-03T19:31:46.986Z,38.80
2017-12-03T19:34:19.506Z,38.30
2017-12-03T19:36:52.045Z,38.40
2017-12-03T19:39:24.604Z,38.30
2017-12-03T19:41:57.181Z,38.40
2017-12-03T19:44:29.759Z,38.40
2017-12-03T19:47:03.173Z,38.40
2017-12-03T19:49:36.434Z,38.40
2017-12-03T19:52:09.713Z,38.30
2017-12-03T19:54:43.009Z,38.30
2017-12-03T19:57:16.323Z,38.30
2017-12-03T19:59:48.805Z,38.30
2017-12-03T20:02:21.314Z,38.30
2017-12-03T20:04:53.904Z,38.30
2017-12-03T20:07:26.406Z,38.30
2017-12-03T20:09:59.773Z,38.40
2017-12-03T20:12:32.255Z,38.40
2017-12-03T20:15:05.581Z,38.40
2017-12-03T20:17:38.204Z,38.30
2017-12-03T20:20:10.759Z,38.30
2017-12-03T20:22:43.220Z,38.40
2017-12-03T20:25:15.870Z,38.30
2017-12-03T20:27:48.341Z,38.40
2017-12-03T20:30:20.838Z,38.30
2017-12-03T20:32:54.144Z,38.40
2017-12-03T20:35:26.776Z,38.40
2017-12-03T20:37:59.274Z,38.40
2017-12-03T20:40:31.833Z,38.40
2017-12-03T20:43:04.379Z,38.40
2017-12-03T20:45:36.982Z,38.30
2017-12-03T20:48:09.494Z,38.40
2017-12-03T20:50:42.045Z,38.30
2017-12-03T20:53:14.633Z,38.40
2017-12-03T20:55:47.121Z,38.40
2017-12-03T20:58:19.705Z,38.30
2017-12-03T21:00:52.213Z,38.30
2017-12-03T21:03:24.781Z,38.30
2017-12-03T21:05:57.204Z,38.30
2017-12-03T21:08:30.563Z,39.00
2017-12-03T21:11:03.111Z,38.30
2017-12-03T21:13:35.859Z,38.30
2017-12-03T21:16:09.113Z,38.40
2017-12-03T21:18:42.385Z,38.40
2017-12-03T21:21:15.105Z,38.30
2017-12-03T21:23:47.598Z,38.30
2017-12-03T21:26:20.139Z,38.30
2017-12-03T21:28:53.421Z,38.40
2017-12-03T21:31:26.042Z,38.30
2017-12-03T21:33:58.501Z,38.40
2017-12-03T21:36:31.029Z,38.30
2017-12-03T21:39:04.350Z,38.40
2017-12-03T21:41:36.987Z,38.30
2017-12-03T21:44:09.531Z,38.40
2017-12-03T21:46:42.173Z,38.40
2017-12-03T21:49:14.623Z,38.40
2017-12-03T21:51:47.133Z,38.40
2017-12-03T21:54:19.693Z,38.40
2017-12-03T21:56:52.304Z,38.40
2017-12-03T21:59:25.554Z,38.40
2017-12-03T22:01:58.116Z,38.40
2017-12-03T22:04:30.614Z,38.40
2017-12-03T22:07:03.811Z,38.40
2017-12-03T22:09:36.341Z,38.40
2017-12-03T22:12:08.850Z,38.40
2017-12-03T22:14:41.324Z,38.40
2017-12-03T22:17:13.813Z,38.30
2017-12-03T22:19:46.429Z,38.40
2017-12-03T22:22:18.968Z,38.40
2017-12-03T22:24:51.481Z,38.40
2017-12-03T22:27:24.086Z,38.30
2017-12-03T22:29:56.586Z,38.10
2017-12-03T22:32:29.217Z,38.40
2017-12-03T22:35:01.645Z,38.40
2017-12-03T22:37:34.200Z,38.50
2017-12-03T22:40:06.772Z,38.40
2017-12-03T22:42:39.411Z,38.40
2017-12-03T22:45:11.877Z,38.40
2017-12-03T22:47:44.428Z,38.40
2017-12-03T22:50:16.946Z,38.50
2017-12-03T22:52:49.386Z,38.40
2017-12-03T22:55:21.925Z,38.30
2017-12-03T22:57:54.511Z,38.40
2017-12-03T23:00:27.052Z,38.40
2017-12-03T23:02:59.558Z,38.40
2017-12-03T23:05:32.145Z,38.40
2017-12-03T23:08:04.702Z,38.40
2017-12-03T23:10:37.944Z,38.50
2017-12-03T23:13:10.440Z,38.40
2017-12-03T23:15:43.761Z,38.50
2017-12-03T23:18:17.174Z,38.40
2017-12-03T23:20:49.661Z,38.30
2017-12-03T23:23:22.239Z,38.40
2017-12-03T23:25:55.577Z,38.40
2017-12-03T23:28:28.894Z,38.40
2017-12-03T23:31:01.408Z,38.40
2017-12-03T23:33:34.750Z,38.40
2017-12-03T23:36:07.252Z,38.30
2017-12-03T23:38:39.693Z,38.40
2017-12-03T23:41:12.965Z,38.40
2017-12-03T23:43:46.272Z,38.50
2017-12-03T23:46:19.541Z,38.40
2017-12-03T23:48:52.765Z,38.40
2017-12-03T23:51:25.241Z,38.40
2017-12-03T23:53:57.769Z,38.40
2017-12-03T23:56:30.207Z,38.50
2017-12-03T23:59:02.757Z,38.40
